logo
App data

Codename: Panzers - Cold War

Tempelhof, Berlin, dawn of 8th April 1949.A major armed conflict is brewing between the Western powers and the Soviet bloc. The Red Army has been growing ever stronger since the end of World War II. With the growth of their army the Soviets realize that they hold the advantage, and are only waiting for the right moment to attack.
Store | Hub | SteamDB | Site
Developer: InnoGlow, Stormregion, THQ Nordic Publisher: THQ Nordic
Genre: Simulation, Strategy
Languages: English, French, German, Spanish - Spain, Italian, Hungarian,Polish, Russian, Czech
Tags: Strategy (33), RTS (24), Simulation (21), War (14), Singleplayer (13), Multiplayer (12), Cult Classic (11), Cold War (11), Tactical (11), Great Soundtrack (10), Atmospheric (10), Classic (9)
Category: Single-player, Multi-player, Co-op
Release date: May 6, 2009
Price: $3.74 75%
Old userscore: 62% Owners: 20,000 .. 50,000
Followers: 1,259
Peak concurrent players yesterday: 14

Steam Spy is still in beta, so expect major bugs.

Owners data:

Access restricted.

This feature is only available to users with special access rights. Sorry.

If you want to proceed, you need to register or log in first and then back Steam Spy on Patreon. Look for Indie or Pro pledge.

Don't forget to use the same email as on Steam Spy!

Audience in 2 weeks:

Access restricted.

This feature is only available to users with special access rights. Sorry.

If you want to proceed, you need to register or log in first and then back Steam Spy on Patreon. Look for Indie or Pro pledge.

Don't forget to use the same email as on Steam Spy!

Peak daily concurrent players:

CCU data courtesy of SteamDB. Used with permission.

Hourly concurrent players:

Followers over time

Access restricted.

This feature is only available to users with special access rights. Sorry.

If you want to proceed, you need to register or log in first and then back Steam Spy on Patreon. Look for Indie or Pro pledge.

Don't forget to use the same email as on Steam Spy!

Views for top 50 videos on YouTube for this game:

Games similar to this one:

# Game Release date
Price
Score rank
(Userscore / Metascore)
Owners
Players
Playtime (Median)
1 Honey Rose: Underdog Fighter Extraordinaire Sep 29, 2016 FreeN/A (N/A)0 .. 20,0000%00:00 (00:00)
2 UFHO2 Jun 2, 2015 FreeN/A (N/A)20,000 .. 50,0000%00:00 (00:00)
3 Children of Orc Dec 20, 2016 FreeN/A (N/A)20,000 .. 50,0000%00:00 (00:00)
4 Wyrmsun May 22, 2015 FreeN/A (N/A)20,000 .. 50,0000%00:00 (00:00)
5 Steam 360 Video Player May 10, 2017 FreeN/A (N/A)100,000 .. 200,0000%00:00 (00:00)
6 Rise: Battle Lines Nov 17, 2015 N/AN/A (N/A)0 .. 20,0000%00:00 (00:00)
7 Legions of Steel Jul 16, 2015 $4.99N/A (N/A/64%)0 .. 20,0000%00:00 (00:00)
8 Codename: Panzers, Phase Two Feb 18, 2016 $3.74N/A (N/A/80%)0 .. 20,0000%00:00 (00:00)
9 Alea Jacta Est Nov 4, 2014 $9.74N/A (N/A)50,000 .. 100,0000%00:00 (00:00)
10 Pang Adventures Apr 18, 2016 $3.99N/A (N/A)20,000 .. 50,0000%00:00 (00:00)
11 Magnifico Dec 2, 2014 $0.49N/A (N/A)0 .. 20,0000%00:00 (00:00)
12 Cosmic Trip May 24, 2017 $12.99N/A (N/A)20,000 .. 50,0000%00:00 (00:00)
13 Gods vs Humans Oct 10, 2014 $0.99N/A (N/A)20,000 .. 50,0000%00:00 (00:00)
14 Quarantine Feb 9, 2017 $2.49N/A (N/A)20,000 .. 50,0000%00:00 (00:00)
15 Across the Rhine Nov 6, 2014 $1.74N/A (N/A)0 .. 20,0000%00:00 (00:00)
16 ROD: Revolt Of Defense Aug 12, 2016 $0.62N/A (N/A)20,000 .. 50,0000%00:00 (00:00)
17 SHOGUN: Total War - Collection Jun 25, 2015 $2.49N/A (N/A)50,000 .. 100,0000%00:00 (00:00)
18 Europa Universalis: Rome - Gold Edition Dec 18, 2008 $2.49N/A (N/A/79%)50,000 .. 100,0000%00:00 (00:00)
19 Space Trader: Merchant Marine Oct 23, 2008 $0.99N/A (N/A)100,000 .. 200,0000%00:00 (00:00)
20 Grand Ages: Rome Mar 20, 2009 $2.49N/A (N/A/72%)200,000 .. 500,0000%00:00 (00:00)
21 Maelstrom: The Battle for Earth Begins Feb 20, 2007 $0.49N/A (N/A/58%)20,000 .. 50,0000%00:00 (00:00)
22 East India Company Jul 31, 2009 $9.99N/A (N/A/67%)50,000 .. 100,0000%00:00 (00:00)
23 Port Royale 2 Jun 16, 2009 $0.99N/A (N/A/75%)50,000 .. 100,0000%00:00 (00:00)
24 X-COM: Interceptor Jun 15, 1998 $1.24N/A (N/A)50,000 .. 100,0000%00:00 (00:00)
25 9th Company: Roots Of Terror Dec 3, 2009 $0.99N/A (N/A)20,000 .. 50,0000%00:00 (00:00)
26 X-COM: Enforcer Apr 19, 2001 $1.24N/A (N/A/65%)100,000 .. 200,0000%00:00 (00:00)
27 Heroes of Might & Magic V: Hammers of Fate Oct 10, 2008 $2.49N/A (N/A/66%)50,000 .. 100,0000%00:00 (00:00)
28 Warhammer 40,000: Dawn of War – Winter Assault Aug 7, 2007 $3.24N/A (N/A)500,000 .. 1,000,0000%00:00 (00:00)
29 Harvest: Massive Encounter Jan 23, 2009 $7.99N/A (N/A)20,000 .. 50,0000%00:00 (00:00)
30 Company of Heroes: Opposing Fronts Sep 24, 2007 $3.99N/A (N/A/87%)2,000,000 .. 5,000,0000%00:00 (00:00)
31 Red Faction II Aug 6, 2009 $2.49N/A (N/A/64%)200,000 .. 500,0000%00:00 (00:00)
32 Supreme Commander Sep 28, 2011 $2.59N/A (N/A/86%)1,000,000 .. 2,000,0000%00:00 (00:00)
33 Imperium Romanum Gold Edition Nov 25, 2008 $1.99N/A (N/A/63%)100,000 .. 200,0000%00:00 (00:00)
34 Desperados 2: Cooper's Revenge Mar 12, 2008 $2.49N/A (N/A/66%)50,000 .. 100,0000%00:00 (00:00)
35 Demolition Inc. Sep 19, 2011 $5.99N/A (N/A)50,000 .. 100,0000%00:00 (00:00)
36 Dungeons Feb 10, 2011 $2.99N/A (N/A/65%)200,000 .. 500,0000%00:00 (00:00)
37 American Conquest Aug 26, 2011 $1.24N/A (N/A/76%)20,000 .. 50,0000%00:00 (00:00)
38 Age of Wonders Oct 2010 $1.19N/A (N/A)100,000 .. 200,0000%00:00 (00:00)
39 Dungeons - The Dark Lord Sep 27, 2011 $4.99N/A (N/A/72%)100,000 .. 200,0000%00:00 (00:00)
40 Age of Wonders II: The Wizard's Throne Oct 2010 $2.49N/A (N/A/86%)50,000 .. 100,0000%00:00 (00:00)
41 Patrician III Nov 18, 2010 $1.24N/A (N/A/75%)100,000 .. 200,0000%00:00 (00:00)
42 Swords and Soldiers HD Dec 2, 2010 $2.49N/A (N/A)200,000 .. 500,0000%00:00 (00:00)
43 Dwarfs!? May 4, 2011 $2.49N/A (N/A)200,000 .. 500,0000%00:00 (00:00)
44 Theatre of War 3: Korea Mar 24, 2011 $1.39N/A (N/A/49%)50,000 .. 100,0000%00:00 (00:00)
45 Sacrifice Nov 1, 2000 $3.39N/A (N/A/89%)50,000 .. 100,0000%00:00 (00:00)
46 Archon Classic Nov 2, 2010 $9.99N/A (N/A)20,000 .. 50,0000%00:00 (00:00)
47 The Guild Gold Edition Sep 9, 2014 $2.49N/A (N/A/82%)100,000 .. 200,0000%00:00 (00:00)
48 APOX Jan 20, 2011 $14.99N/A (N/A/48%)20,000 .. 50,0000%00:00 (00:00)
49 Robin Hood: The Legend of Sherwood Aug 26, 2011 $1.59N/A (N/A/80%)100,000 .. 200,0000%00:00 (00:00)
50 Hydrophobia: Prophecy May 9, 2011 $4.99N/A (N/A/64%)200,000 .. 500,0000%00:00 (00:00)
51 Ironclads: American Civil War Apr 28, 2010 $0.99N/A (N/A)20,000 .. 50,0000%00:00 (00:00)
52 Void Destroyer Jan 20, 2015 $3.99N/A (N/A)50,000 .. 100,0000%00:00 (00:00)
53 Conquest of Elysium 3 Oct 24, 2012 $2.49N/A (N/A)50,000 .. 100,0000%00:00 (00:00)
54 Desperados: Wanted Dead or Alive Nov 20, 2013 $1.24N/A (N/A/78%)100,000 .. 200,00015.38%01:26 (00:57)
55 Galactic Civilizations I: Ultimate Edition Aug 14, 2012 $4.99N/A (N/A/83%)200,000 .. 500,0000%00:00 (00:00)
56 Praetorians Apr 11, 2014 $1.49N/A (N/A/78%)100,000 .. 200,0000%00:00 (00:00)
57 Sang-Froid - Tales of Werewolves Apr 5, 2013 FreeN/A (N/A/79%)200,000 .. 500,0000%00:00 (00:00)
58 Disciples III - Resurrection Oct 11, 2011 $2.99N/A (N/A/63%)100,000 .. 200,0000%00:00 (00:00)
59 Eador: Genesis Oct 14, 2013 $0.59N/A (N/A)50,000 .. 100,0000%00:00 (00:00)
60 Men of War: Condemned Heroes Apr 12, 2012 $1.59N/A (N/A/57%)100,000 .. 200,0000%00:00 (00:00)
61 UFO: Afterlight Jan 6, 2014 $1.39N/A (N/A/71%)200,000 .. 500,0000%00:00 (00:00)
62 Crusader Kings Complete Feb 14, 2012 $2.49N/A (N/A/73%)100,000 .. 200,0000%00:00 (00:00)
63 Citadels Jul 25, 2013 $2.99N/A (N/A/20%)50,000 .. 100,0000%00:00 (00:00)
64 Cubemen Mar 16, 2012 $3.99N/A (N/A/74%)100,000 .. 200,0000%00:00 (00:00)
65 Ancient Space Sep 23, 2014 $4.99N/A (N/A)50,000 .. 100,0000%00:00 (00:00)
66 Viking: Battle for Asgard Oct 17, 2012 $14.99N/A (N/A)1,000,000 .. 2,000,0000%00:00 (00:00)
67 Earth 2140 Nov 15, 2013 $1.99N/A (N/A)200,000 .. 500,0000%00:00 (00:00)
68 Conflict Desert Storm May 28, 2012 $0.97N/A (N/A/56%)50,000 .. 100,0000%00:00 (00:00)
69 The Nightmare Cooperative Jul 16, 2014 $1.24N/A (N/A)50,000 .. 100,0000%00:00 (00:00)
70 Aggression: Europe Under Fire Apr 9, 2014 $0.99N/A (N/A)50,000 .. 100,0000%00:00 (00:00)
71 To End All Wars Aug 29, 2014 $9.59N/A (N/A/71%)0 .. 20,0000%00:00 (00:00)
72 Marauder Apr 4, 2014 $0.99N/A (N/A)50,000 .. 100,0000%00:00 (00:00)
73 Hell Nov 13, 2014 $4.49N/A (N/A)0 .. 20,0000%00:00 (00:00)
74 Haegemonia: The Solon Heritage May 1, 2014 $0.99N/A (N/A)50,000 .. 100,0000%00:00 (00:00)
75 US and THEM Mar 18, 2014 $0.5N/A (N/A)20,000 .. 50,0000%00:00 (00:00)
76 Brigade E5: New Jagged Union Apr 30, 2014 $0.79N/A (N/A/41%)0 .. 20,0000%00:00 (00:00)
77 ORB Mar 13, 2014 $0.49N/A (N/A)20,000 .. 50,0000%00:00 (00:00)
78 Rooks Keep Dec 5, 2014 $3.99N/A (N/A)0 .. 20,0000%00:00 (00:00)
79 Battle Academy Apr 16, 2014 $1.49N/A (N/A)20,000 .. 50,0000%00:00 (00:00)
80 Rush for Glory Jun 16, 2014 $14.99N/A (N/A)20,000 .. 50,0000%00:00 (00:00)
81 Perimeter: Emperor's Testament May 22, 2014 $0.79N/A (N/A/72%)20,000 .. 50,0000%00:00 (00:00)
82 Civil War II Jul 3, 2014 $9.59N/A (N/A)20,000 .. 50,0000%00:00 (00:00)
83 Perimeter Apr 3, 2014 $0.79N/A (N/A/77%)20,000 .. 50,0000%00:00 (00:00)
84 War in a Box: Paper Tanks Jul 4, 2014 $4.99N/A (N/A)20,000 .. 50,0000%00:00 (00:00)
85 UFO: Aftershock Apr 16, 2014 $0.79N/A (N/A)50,000 .. 100,0000%00:00 (00:00)
86 688(I) Hunter/Killer Oct 26, 2006 $1.99N/A (N/A)20,000 .. 50,0000%00:00 (00:00)
87 Battlestations: Midway Jan 30, 2007 $0.97N/A (N/A/76%)200,000 .. 500,0000%00:00 (00:00)
88 Sub Command Oct 26, 2006 $1.99N/A (N/A/84%)20,000 .. 50,0000%00:00 (00:00)
89 Two Worlds II Castle Defense Jun 14, 2011 $3.99N/A (N/A)100,000 .. 200,0000%00:00 (00:00)
90 Men of War: Red Tide Nov 1, 2009 $0.99N/A (N/A/77%)200,000 .. 500,0000%00:00 (00:00)
91 X-COM: Apocalypse Jul 15, 1997 $1.24N/A (N/A)500,000 .. 1,000,0000%00:00 (00:00)
92 Civilization IV: Warlords Jul 24, 2006 $4.99N/A (N/A/84%)1,000,000 .. 2,000,0000%00:00 (00:00)
93 Darwinia Jul 14, 2005 $1.99N/A (N/A/84%)500,000 .. 1,000,0000%00:00 (00:00)
94 Full Spectrum Warrior: Ten Hammers Jul 17, 2007 $2.49N/A (N/A/70%)100,000 .. 200,0000%00:00 (00:00)
95 Dangerous Waters Feb 7, 2006 $2.99N/A (N/A/82%)50,000 .. 100,0000%00:00 (00:00)
96 Rome: Total War - Alexander Aug 28, 2007 $12.99N/A (N/A/79%)500,000 .. 1,000,0000%00:00 (00:00)
97 Space Empires IV Deluxe Feb 7, 2006 $1.99N/A (N/A/79%)50,000 .. 100,0000%00:00 (00:00)
98 Cossacks II: Battle for Europe Aug 26, 2011 $1.24N/A (N/A/69%)100,000 .. 200,0000%00:00 (00:00)
99 Disciples II: Rise of the Elves Jul 6, 2006 $1.39N/A (N/A/80%)50,000 .. 100,0000%00:00 (00:00)
100 Joint Task Force Mar 27, 2007 $3.19N/A (N/A/68%)20,000 .. 50,0000%00:00 (00:00)
101 ThreadSpace: Hyperbol Jul 12, 2007 $1.24N/A (N/A)0 .. 20,0000%00:00 (00:00)
102 Commandos: Beyond the Call of Duty Mar 15, 2007 $1.49N/A (N/A)500,000 .. 1,000,0000%00:00 (00:00)

Tags over time:

Access restricted.

This feature is only available to users with special access rights. Sorry.

If you want to proceed, you need to register or log in first and then back Steam Spy on Patreon. Look for Indie or Pro pledge.

Don't forget to use the same email as on Steam Spy!

Owners of this game also own:

Access restricted.

This feature is only available to users with special access rights. Sorry.

If you want to proceed, you need to register or log in first and then back Steam Spy on Patreon. Look for Indie or Pro pledge.

Don't forget to use the same email as on Steam Spy!

Playtime distribution:

Access restricted.

This feature is only available to users with special access rights. Sorry.

If you want to proceed, you need to register or log in first and then back Steam Spy on Patreon. Look for Indie or Pro pledge.

Don't forget to use the same email as on Steam Spy!

Playtime (2 weeks):

Access restricted.

This feature is only available to users with special access rights. Sorry.

If you want to proceed, you need to register or log in first and then back Steam Spy on Patreon. Look for Indie or Pro pledge.

Don't forget to use the same email as on Steam Spy!

User reviews:

Login required.

Please register or log in to see this information.